createdAt,value
2019-03-10T00:00:51.376Z,99.90
2019-03-10T00:03:20.608Z,99.90
2019-03-10T00:05:50.871Z,99.90
2019-03-10T00:08:19.803Z,99.90
2019-03-10T00:10:48.723Z,99.90
2019-03-10T00:13:17.637Z,99.90
2019-03-10T00:15:46.603Z,99.90
2019-03-10T00:18:15.454Z,99.90
2019-03-10T00:20:44.412Z,99.90
2019-03-10T00:23:13.221Z,99.90
2019-03-10T00:25:42.472Z,99.90
2019-03-10T00:28:11.333Z,99.90
2019-03-10T00:30:40.202Z,99.90
2019-03-10T00:33:09.067Z,99.90
2019-03-10T00:35:38.244Z,99.90
2019-03-10T00:38:07.445Z,99.90
2019-03-10T00:41:10.928Z,99.90
2019-03-10T00:44:19.963Z,99.90
2019-03-10T00:47:26.141Z,99.90
2019-03-10T00:50:41.889Z,99.90
2019-03-10T00:53:10.971Z,99.90
2019-03-10T00:55:39.906Z,99.90
2019-03-10T00:58:08.852Z,99.90
2019-03-10T01:00:37.844Z,99.90
2019-03-10T01:03:06.808Z,99.90
2019-03-10T01:05:35.773Z,99.90
2019-03-10T01:08:04.705Z,99.90
2019-03-10T01:10:33.691Z,99.90
2019-03-10T01:13:02.576Z,99.90
2019-03-10T01:15:31.650Z,99.90
2019-03-10T01:18:01.360Z,99.90
2019-03-10T01:20:31.090Z,99.90
2019-03-10T01:22:59.972Z,99.90
2019-03-10T01:25:28.884Z,99.90
2019-03-10T01:27:57.773Z,99.90
2019-03-10T01:30:28.097Z,99.90
2019-03-10T01:33:21.831Z,99.90
2019-03-10T01:35:50.621Z,99.90
2019-03-10T01:38:19.572Z,99.90
2019-03-10T01:40:48.428Z,99.90
2019-03-10T01:43:17.254Z,99.90
2019-03-10T01:45:46.059Z,99.90
2019-03-10T01:48:14.922Z,99.90
2019-03-10T01:50:43.795Z,99.90
2019-03-10T01:53:12.682Z,99.90
2019-03-10T01:55:41.884Z,99.90
2019-03-10T01:58:10.709Z,99.90
2019-03-10T02:00:39.513Z,99.90
2019-03-10T02:03:08.336Z,99.90
2019-03-10T02:05:37.527Z,99.90
2019-03-10T02:08:06.465Z,99.90
2019-03-10T02:10:35.330Z,99.90
2019-03-10T02:13:04.238Z,99.90
2019-03-10T02:15:33.464Z,99.90
2019-03-10T02:18:02.364Z,99.90
2019-03-10T02:20:31.160Z,99.90
2019-03-10T02:23:00.088Z,99.90
2019-03-10T02:25:28.977Z,99.90
2019-03-10T02:27:57.791Z,99.90
2019-03-10T02:30:26.656Z,99.90
2019-03-10T02:32:55.501Z,99.90
2019-03-10T02:35:24.467Z,99.90
2019-03-10T02:37:53.358Z,99.90
2019-03-10T02:40:22.168Z,99.90
2019-03-10T02:42:51.087Z,99.90
2019-03-10T02:45:22.094Z,99.90
2019-03-10T02:47:50.932Z,99.90
2019-03-10T02:50:19.828Z,99.90
2019-03-10T02:52:48.640Z,99.90
2019-03-10T02:55:17.431Z,99.90
2019-03-10T02:57:46.230Z,99.90
2019-03-10T03:00:15.189Z,99.90
2019-03-10T03:02:43.989Z,99.90
2019-03-10T03:05:13.045Z,99.90
2019-03-10T03:07:41.907Z,99.90
2019-03-10T03:10:12.156Z,99.90
2019-03-10T03:12:41.109Z,99.90
2019-03-10T03:15:10.132Z,99.90
2019-03-10T03:17:38.906Z,99.90
2019-03-10T03:20:08.533Z,99.90
2019-03-10T03:22:37.386Z,99.90
2019-03-10T03:25:08.946Z,99.90
2019-03-10T03:27:37.807Z,99.90
2019-03-10T03:30:08.775Z,99.90
2019-03-10T03:32:37.657Z,99.90
2019-03-10T03:35:34.709Z,99.90
2019-03-10T03:38:03.596Z,99.90
2019-03-10T03:40:32.463Z,99.90
2019-03-10T03:43:01.274Z,99.90
2019-03-10T03:45:30.070Z,99.90
2019-03-10T03:47:58.855Z,99.90
2019-03-10T03:50:27.899Z,99.90
2019-03-10T03:52:57.027Z,99.90
2019-03-10T03:55:26.277Z,99.90
2019-03-10T03:57:55.070Z,99.90
2019-03-10T04:00:23.849Z,99.90
2019-03-10T04:02:52.723Z,99.90
2019-03-10T04:05:21.522Z,99.90
2019-03-10T04:07:50.286Z,99.90
2019-03-10T04:10:19.170Z,99.90
2019-03-10T04:12:48.030Z,99.90
2019-03-10T04:15:17.226Z,99.90
2019-03-10T04:17:46.034Z,99.90
2019-03-10T04:20:14.973Z,99.90
2019-03-10T04:22:43.745Z,99.90
2019-03-10T04:25:12.664Z,99.90
2019-03-10T04:27:41.457Z,99.90
2019-03-10T04:30:10.571Z,99.90
2019-03-10T04:32:58.586Z,99.90
2019-03-10T04:35:27.352Z,99.90
2019-03-10T04:37:56.169Z,99.90
2019-03-10T04:40:25.072Z,99.90
2019-03-10T04:42:53.895Z,99.90
2019-03-10T04:45:22.749Z,99.90
2019-03-10T04:47:51.607Z,99.90
2019-03-10T04:50:20.464Z,99.90
2019-03-10T04:52:49.305Z,99.90
2019-03-10T04:55:37.198Z,99.90
2019-03-10T04:58:08.902Z,99.90
2019-03-10T05:00:38.988Z,99.90
2019-03-10T05:03:08.154Z,99.90
2019-03-10T05:05:37.147Z,99.90
2019-03-10T05:08:06.217Z,99.90
2019-03-10T05:10:35.669Z,99.90
2019-03-10T05:13:04.644Z,99.90
2019-03-10T05:15:33.781Z,99.90
2019-03-10T05:18:02.673Z,99.90
2019-03-10T05:20:31.565Z,99.90
2019-03-10T05:23:28.105Z,99.90
2019-03-10T05:25:57.098Z,99.90
2019-03-10T05:28:25.968Z,99.90
2019-03-10T05:30:54.855Z,99.90
2019-03-10T05:33:23.748Z,99.90
2019-03-10T05:35:52.652Z,99.90
2019-03-10T05:38:21.622Z,99.90
2019-03-10T05:40:50.570Z,99.90
2019-03-10T05:43:19.416Z,99.90
2019-03-10T05:45:48.437Z,99.90
2019-03-10T05:48:17.326Z,99.90
2019-03-10T05:50:46.279Z,99.90
2019-03-10T05:53:15.623Z,99.90
2019-03-10T05:55:44.552Z,99.90
2019-03-10T05:58:13.381Z,99.90
2019-03-10T06:00:43.270Z,99.90
2019-03-10T06:03:12.352Z,99.90
2019-03-10T06:05:41.167Z,99.90
2019-03-10T06:08:10.073Z,99.90
2019-03-10T06:10:48.106Z,99.90
2019-03-10T06:13:17.033Z,99.90
2019-03-10T06:15:46.015Z,99.90
2019-03-10T06:18:14.933Z,99.90
2019-03-10T06:20:43.911Z,99.90
2019-03-10T06:23:12.895Z,99.90
2019-03-10T06:25:41.727Z,99.90
2019-03-10T06:28:10.605Z,99.90
2019-03-10T06:30:39.479Z,99.90
2019-03-10T06:33:08.344Z,99.90
2019-03-10T06:35:37.189Z,99.90
2019-03-10T06:38:06.076Z,99.90
2019-03-10T06:40:35.070Z,99.90
2019-03-10T06:43:03.949Z,99.90
2019-03-10T06:45:32.930Z,99.90
2019-03-10T06:48:01.842Z,99.90
2019-03-10T06:50:30.871Z,99.90
2019-03-10T06:52:59.696Z,99.90
2019-03-10T06:55:28.745Z,99.90
2019-03-10T06:57:57.540Z,99.90
2019-03-10T07:00:26.360Z,99.90
2019-03-10T07:02:55.276Z,99.90
2019-03-10T07:05:24.093Z,99.90
2019-03-10T07:07:52.913Z,99.90
2019-03-10T07:10:21.759Z,99.90
2019-03-10T07:12:50.762Z,99.90
2019-03-10T07:15:19.606Z,99.90
2019-03-10T07:17:48.414Z,99.90
2019-03-10T07:20:17.557Z,99.90
2019-03-10T07:22:46.470Z,99.90
2019-03-10T07:25:34.492Z,99.90
2019-03-10T07:28:11.558Z,99.90
2019-03-10T07:30:56.101Z,99.90
2019-03-10T07:33:30.892Z,99.90
2019-03-10T07:36:18.770Z,99.90
2019-03-10T07:39:10.832Z,99.90
2019-03-10T07:41:46.372Z,99.90
2019-03-10T07:44:21.945Z,99.90
2019-03-10T07:47:22.669Z,99.90
2019-03-10T07:50:10.771Z,99.90
2019-03-10T07:52:49.712Z,99.90
2019-03-10T07:55:40.233Z,99.90
2019-03-10T07:58:30.432Z,99.90
2019-03-10T08:01:15.833Z,99.90
2019-03-10T08:03:55.762Z,99.90
2019-03-10T08:06:44.193Z,99.90
2019-03-10T08:09:29.769Z,99.90
2019-03-10T08:12:04.481Z,99.90
2019-03-10T08:14:46.102Z,99.90
2019-03-10T08:17:26.696Z,99.90
2019-03-10T08:20:13.474Z,99.90
2019-03-10T08:23:09.299Z,99.90
2019-03-10T08:25:48.003Z,99.90
2019-03-10T08:28:42.368Z,99.90
2019-03-10T08:31:39.894Z,99.90
2019-03-10T08:34:31.897Z,99.90
2019-03-10T08:37:28.646Z,99.90
2019-03-10T08:40:08.273Z,99.90
2019-03-10T08:43:14.503Z,99.90
2019-03-10T08:46:00.990Z,99.90
2019-03-10T08:48:40.898Z,99.90
2019-03-10T08:51:27.559Z,99.90
2019-03-10T08:54:16.866Z,99.90
2019-03-10T08:57:07.794Z,99.90
2019-03-10T08:59:55.157Z,99.90
2019-03-10T09:02:39.601Z,99.90
2019-03-10T09:05:36.745Z,99.90
2019-03-10T09:08:14.118Z,99.90
2019-03-10T09:10:56.794Z,99.90
2019-03-10T09:13:46.409Z,99.90
2019-03-10T09:16:33.717Z,99.90
2019-03-10T09:19:21.568Z,99.90
2019-03-10T09:22:06.555Z,99.90
2019-03-10T09:24:58.874Z,99.90
2019-03-10T09:27:46.066Z,99.90
2019-03-10T09:30:42.213Z,99.90
2019-03-10T09:33:36.100Z,99.90
2019-03-10T09:36:11.050Z,99.90
2019-03-10T09:38:58.037Z,99.90
2019-03-10T09:41:52.336Z,99.90
2019-03-10T09:44:43.562Z,99.90
2019-03-10T09:47:43.697Z,99.90
2019-03-10T09:50:30.717Z,99.90
2019-03-10T09:53:27.884Z,99.90
2019-03-10T09:56:15.818Z,99.90
2019-03-10T09:58:57.689Z,99.90
2019-03-10T10:01:45.651Z,99.90
2019-03-10T10:04:21.669Z,99.90
2019-03-10T10:06:58.340Z,99.90
2019-03-10T10:09:51.619Z,99.90
2019-03-10T10:12:34.161Z,99.90
2019-03-10T10:15:34.617Z,99.90
2019-03-10T10:18:25.141Z,99.90
2019-03-10T10:21:31.092Z,99.90
2019-03-10T10:24:19.101Z,99.90
2019-03-10T10:26:59.377Z,99.90
2019-03-10T10:29:50.158Z,99.90
2019-03-10T10:32:24.112Z,99.90
2019-03-10T10:35:11.209Z,99.90
2019-03-10T10:37:58.112Z,99.90
2019-03-10T10:40:43.408Z,99.90
2019-03-10T10:43:30.518Z,99.90
2019-03-10T10:46:37.301Z,99.90
2019-03-10T10:49:14.896Z,99.90
2019-03-10T10:52:10.467Z,99.90
2019-03-10T10:54:49.474Z,99.90
2019-03-10T10:57:26.459Z,99.90
2019-03-10T11:00:01.613Z,99.90
2019-03-10T11:02:49.701Z,99.90
2019-03-10T11:05:28.530Z,99.90
2019-03-10T11:08:26.221Z,99.90
2019-03-10T11:11:19.561Z,99.90
2019-03-10T11:14:16.924Z,99.90
2019-03-10T11:17:13.982Z,99.90
2019-03-10T11:20:03.149Z,99.90
2019-03-10T11:22:50.222Z,99.90
2019-03-10T11:25:38.325Z,99.90
2019-03-10T11:28:25.489Z,99.90
2019-03-10T11:31:05.190Z,99.90
2019-03-10T11:33:52.044Z,99.90
2019-03-10T11:36:38.829Z,99.90
2019-03-10T11:39:20.583Z,99.90
2019-03-10T11:42:06.768Z,99.90
2019-03-10T11:44:55.016Z,99.90
2019-03-10T11:47:55.024Z,99.90
2019-03-10T11:50:45.451Z,99.90
2019-03-10T11:53:20.478Z,99.90
2019-03-10T11:56:08.558Z,99.90
2019-03-10T11:58:59.722Z,99.90
2019-03-10T12:01:44.779Z,99.90
2019-03-10T12:04:35.966Z,99.90
2019-03-10T12:07:17.287Z,99.90
2019-03-10T12:09:46.339Z,99.90
2019-03-10T12:12:15.327Z,99.90
2019-03-10T12:14:44.296Z,99.90
2019-03-10T12:17:13.111Z,99.90
2019-03-10T12:19:42.037Z,99.90
2019-03-10T12:22:11.172Z,99.90
2019-03-10T12:24:40.080Z,99.90
2019-03-10T12:27:09.100Z,99.90
2019-03-10T12:29:38.168Z,99.90
2019-03-10T12:32:07.061Z,99.90
2019-03-10T12:34:35.955Z,99.90
2019-03-10T12:37:04.924Z,99.90
2019-03-10T12:39:33.916Z,99.90
2019-03-10T12:42:02.877Z,99.90
2019-03-10T12:44:32.121Z,99.90
2019-03-10T12:47:00.967Z,99.90
2019-03-10T12:49:30.036Z,99.90
2019-03-10T12:51:59.095Z,99.90
2019-03-10T12:54:28.133Z,99.90
2019-03-10T12:56:57.050Z,99.90
2019-03-10T12:59:26.237Z,99.90
2019-03-10T13:01:55.103Z,99.90
2019-03-10T13:04:24.429Z,99.90
2019-03-10T13:06:53.291Z,99.90
2019-03-10T13:09:22.261Z,99.90
2019-03-10T13:11:51.185Z,99.90
2019-03-10T13:14:20.003Z,99.90
2019-03-10T13:16:48.926Z,99.90
2019-03-10T13:19:18.262Z,99.90
2019-03-10T13:21:47.230Z,99.90
2019-03-10T13:24:16.248Z,99.90
2019-03-10T13:26:45.262Z,99.90
2019-03-10T13:29:14.882Z,99.90
2019-03-10T13:31:43.757Z,99.90
2019-03-10T13:34:31.944Z,99.90
2019-03-10T13:37:00.853Z,99.40
2019-03-10T13:39:29.762Z,99.90
2019-03-10T13:41:58.666Z,99.90
2019-03-10T13:44:27.471Z,98.60
2019-03-10T13:46:56.269Z,98.30
2019-03-10T13:49:25.416Z,97.90
2019-03-10T13:51:54.577Z,97.50
2019-03-10T13:54:24.338Z,97.30
2019-03-10T13:56:53.277Z,97.20
2019-03-10T13:59:22.098Z,97.10
2019-03-10T14:01:51.246Z,96.00
2019-03-10T14:04:20.173Z,96.70
2019-03-10T14:06:49.132Z,96.10
2019-03-10T14:09:18.068Z,95.30
2019-03-10T14:11:47.032Z,95.00
2019-03-10T14:14:15.804Z,94.60
2019-03-10T14:16:44.593Z,93.80
2019-03-10T14:19:13.464Z,93.50
2019-03-10T14:21:42.594Z,93.20
2019-03-10T14:24:11.415Z,94.30
2019-03-10T14:26:40.600Z,99.20
2019-03-10T14:29:09.549Z,99.90
2019-03-10T14:31:38.327Z,99.90
2019-03-10T14:34:07.125Z,99.90
2019-03-10T14:36:35.977Z,99.90
2019-03-10T14:39:07.030Z,99.90
2019-03-10T14:41:35.976Z,99.90
2019-03-10T14:44:05.510Z,99.90
2019-03-10T14:46:34.499Z,99.90
2019-03-10T14:49:04.107Z,99.90
2019-03-10T14:51:33.073Z,99.90
2019-03-10T14:54:01.891Z,99.20
2019-03-10T14:56:30.685Z,98.70
2019-03-10T14:58:59.494Z,98.40
2019-03-10T15:01:28.358Z,97.80
2019-03-10T15:03:57.137Z,97.90
2019-03-10T15:06:25.924Z,97.60
2019-03-10T15:08:54.726Z,97.70
2019-03-10T15:11:23.516Z,98.00
2019-03-10T15:13:52.382Z,97.70
2019-03-10T15:16:21.208Z,97.40
2019-03-10T15:18:50.017Z,96.00
2019-03-10T15:21:18.788Z,96.50
2019-03-10T15:23:47.562Z,96.60
2019-03-10T15:26:16.432Z,97.50
2019-03-10T15:28:45.237Z,98.10
2019-03-10T15:31:14.158Z,98.30
2019-03-10T15:33:42.961Z,97.80
2019-03-10T15:36:19.767Z,97.90
2019-03-10T15:38:42.306Z,97.30
2019-03-10T15:41:11.091Z,96.90
2019-03-10T15:43:39.877Z,96.00
2019-03-10T15:46:08.722Z,95.20
2019-03-10T15:48:37.527Z,93.50
2019-03-10T15:51:06.604Z,92.80
2019-03-10T15:53:35.727Z,92.10
2019-03-10T15:56:04.497Z,90.70
2019-03-10T15:58:33.367Z,90.90
2019-03-10T16:01:03.933Z,90.00
2019-03-10T16:03:32.661Z,90.10
2019-03-10T16:06:01.467Z,88.60
2019-03-10T16:08:30.281Z,89.40
2019-03-10T16:10:59.450Z,87.70
2019-03-10T16:13:28.230Z,87.00
2019-03-10T16:15:57.103Z,86.90
2019-03-10T16:18:25.912Z,86.10
2019-03-10T16:20:54.702Z,86.40
2019-03-10T16:23:24.038Z,85.60
2019-03-10T16:25:52.952Z,85.80
2019-03-10T16:28:21.825Z,86.30
2019-03-10T16:30:50.598Z,86.90
2019-03-10T16:33:19.573Z,87.80
2019-03-10T16:35:48.473Z,86.10
2019-03-10T16:38:17.305Z,86.20
2019-03-10T16:40:46.233Z,85.20
2019-03-10T16:43:15.021Z,86.00
2019-03-10T16:45:43.896Z,85.90
2019-03-10T16:48:13.053Z,85.80
2019-03-10T16:50:42.338Z,85.70
2019-03-10T16:53:11.149Z,85.20
2019-03-10T16:55:40.089Z,84.40
2019-03-10T16:58:08.864Z,82.60
2019-03-10T17:00:37.821Z,82.70
2019-03-10T17:03:07.193Z,83.00
2019-03-10T17:05:36.044Z,83.20
2019-03-10T17:08:05.380Z,83.50
2019-03-10T17:10:34.172Z,84.60
2019-03-10T17:13:02.965Z,85.40
2019-03-10T17:15:32.198Z,86.30
2019-03-10T17:18:01.050Z,87.30
2019-03-10T17:20:29.928Z,87.80
2019-03-10T17:22:59.067Z,88.50
2019-03-10T17:25:27.873Z,89.10
2019-03-10T17:27:56.741Z,89.30
2019-03-10T17:30:29.118Z,89.40
2019-03-10T17:32:57.913Z,90.00
2019-03-10T17:35:26.736Z,90.20
2019-03-10T17:37:55.701Z,90.50
2019-03-10T17:40:24.741Z,90.70
2019-03-10T17:42:53.666Z,90.90
2019-03-10T17:45:22.830Z,91.20
2019-03-10T17:47:51.718Z,91.20
2019-03-10T17:50:20.922Z,91.50
2019-03-10T17:52:50.358Z,91.60
2019-03-10T17:55:19.365Z,91.70
2019-03-10T17:57:48.236Z,91.70
2019-03-10T18:00:20.344Z,91.60
2019-03-10T18:02:49.921Z,91.50
2019-03-10T18:05:18.733Z,91.30
2019-03-10T18:07:47.724Z,91.50
2019-03-10T18:10:16.724Z,91.60
2019-03-10T18:12:45.701Z,91.60
2019-03-10T18:15:15.099Z,91.30
2019-03-10T18:17:44.005Z,90.90
2019-03-10T18:20:13.807Z,89.90
2019-03-10T18:22:44.324Z,90.10
2019-03-10T18:25:13.773Z,89.00
2019-03-10T18:27:42.677Z,88.50
2019-03-10T18:30:14.821Z,87.80
2019-03-10T18:32:43.685Z,87.40
2019-03-10T18:35:13.174Z,87.00
2019-03-10T18:38:01.761Z,87.10
2019-03-10T18:40:30.600Z,88.00
2019-03-10T18:42:59.797Z,89.60
2019-03-10T18:45:29.265Z,90.10
2019-03-10T18:47:58.314Z,90.30
2019-03-10T18:50:27.227Z,90.40
2019-03-10T18:52:56.185Z,90.60
2019-03-10T18:55:25.008Z,90.70
2019-03-10T18:57:54.013Z,90.60
2019-03-10T19:00:23.336Z,91.00
2019-03-10T19:03:11.350Z,91.40
2019-03-10T19:05:40.533Z,92.20
2019-03-10T19:08:09.723Z,92.70
2019-03-10T19:10:38.709Z,93.00
2019-03-10T19:13:07.937Z,94.80
2019-03-10T19:15:36.877Z,97.30
2019-03-10T19:18:06.057Z,99.90
2019-03-10T19:20:34.953Z,99.20
2019-03-10T19:23:03.844Z,98.20
2019-03-10T19:25:33.066Z,98.40
2019-03-10T19:28:03.113Z,98.70
2019-03-10T19:30:32.322Z,99.60
2019-03-10T19:33:01.165Z,99.80
2019-03-10T19:35:30.037Z,99.90
2019-03-10T19:37:58.918Z,99.90
2019-03-10T19:40:27.852Z,99.90
2019-03-10T19:42:56.767Z,99.90
2019-03-10T19:45:26.573Z,99.90
2019-03-10T19:47:55.467Z,99.90
2019-03-10T19:50:27.116Z,99.90
2019-03-10T19:52:55.373Z,99.90
2019-03-10T19:55:24.322Z,99.90
2019-03-10T19:57:53.228Z,99.90
2019-03-10T20:00:22.469Z,99.90
2019-03-10T20:02:51.296Z,99.90
2019-03-10T20:05:20.290Z,99.90
2019-03-10T20:07:49.453Z,99.90
2019-03-10T20:10:18.416Z,99.90
2019-03-10T20:12:47.489Z,99.90
2019-03-10T20:15:16.739Z,99.90
2019-03-10T20:17:45.735Z,99.90
2019-03-10T20:20:15.884Z,99.90
2019-03-10T20:22:44.780Z,99.90
2019-03-10T20:25:14.095Z,99.60
2019-03-10T20:27:42.988Z,99.70
2019-03-10T20:30:14.395Z,99.30
2019-03-10T20:32:43.305Z,98.90
2019-03-10T20:35:12.278Z,98.30
2019-03-10T20:37:41.196Z,98.00
2019-03-10T20:40:11.727Z,97.40
2019-03-10T20:42:40.895Z,97.30
2019-03-10T20:45:10.241Z,96.40
2019-03-10T20:47:39.029Z,95.30
2019-03-10T20:50:09.477Z,95.50
2019-03-10T20:52:38.610Z,95.60
2019-03-10T20:55:07.803Z,96.10
2019-03-10T20:57:37.068Z,96.60
2019-03-10T21:00:08.241Z,96.80
2019-03-10T21:02:37.135Z,96.60
2019-03-10T21:05:07.446Z,96.60
2019-03-10T21:07:36.408Z,96.60
2019-03-10T21:10:05.914Z,97.00
2019-03-10T21:12:40.661Z,97.50
2019-03-10T21:15:06.673Z,98.20
2019-03-10T21:17:35.914Z,98.20
2019-03-10T21:20:05.384Z,98.10
2019-03-10T21:22:34.336Z,97.80
2019-03-10T21:25:03.308Z,97.50
2019-03-10T21:27:32.119Z,97.00
2019-03-10T21:30:00.933Z,96.50
2019-03-10T21:32:29.741Z,96.30
2019-03-10T21:34:58.576Z,95.80
2019-03-10T21:37:27.376Z,95.80
2019-03-10T21:39:56.265Z,95.30
2019-03-10T21:42:25.061Z,95.30
2019-03-10T21:44:53.880Z,95.10
2019-03-10T21:47:23.000Z,95.20
2019-03-10T21:49:51.821Z,95.30
2019-03-10T21:52:20.733Z,95.40
2019-03-10T21:54:49.556Z,95.40
2019-03-10T21:57:18.431Z,95.50
2019-03-10T21:59:47.620Z,95.60
2019-03-10T22:02:16.450Z,95.60
2019-03-10T22:04:45.236Z,95.70
2019-03-10T22:07:14.438Z,95.50
2019-03-10T22:09:43.229Z,95.40
2019-03-10T22:12:12.017Z,95.60
2019-03-10T22:14:41.245Z,95.30
2019-03-10T22:17:10.033Z,95.80
2019-03-10T22:19:38.822Z,96.60
2019-03-10T22:22:07.891Z,96.90
2019-03-10T22:24:36.749Z,97.20
2019-03-10T22:27:06.783Z,97.30
2019-03-10T22:29:37.363Z,97.30
2019-03-10T22:32:06.727Z,97.60
2019-03-10T22:34:35.578Z,97.20
2019-03-10T22:37:04.504Z,97.00
2019-03-10T22:39:33.285Z,96.60
2019-03-10T22:42:02.057Z,96.30
2019-03-10T22:44:30.849Z,96.50
2019-03-10T22:46:59.716Z,95.80
2019-03-10T22:49:28.828Z,95.40
2019-03-10T22:51:57.975Z,95.40
2019-03-10T22:54:26.790Z,94.80
2019-03-10T22:56:55.592Z,94.00
2019-03-10T22:59:24.728Z,92.70
2019-03-10T23:01:53.636Z,91.90
2019-03-10T23:04:22.416Z,91.90
2019-03-10T23:06:51.501Z,91.20
2019-03-10T23:09:20.359Z,90.70
2019-03-10T23:11:49.137Z,90.60
2019-03-10T23:14:17.940Z,90.70
2019-03-10T23:16:46.844Z,90.00
2019-03-10T23:19:16.000Z,89.60
2019-03-10T23:21:44.816Z,88.20
2019-03-10T23:24:13.688Z,87.50
2019-03-10T23:26:42.493Z,87.70
2019-03-10T23:29:11.344Z,86.70
2019-03-10T23:31:40.285Z,86.80
2019-03-10T23:34:09.096Z,87.10
2019-03-10T23:36:37.931Z,86.40
2019-03-10T23:39:07.011Z,86.90
2019-03-10T23:41:35.785Z,87.60
2019-03-10T23:44:04.667Z,87.20
2019-03-10T23:46:33.435Z,87.10
2019-03-10T23:49:02.539Z,87.30
2019-03-10T23:51:31.411Z,88.50
2019-03-10T23:54:00.189Z,87.90
2019-03-10T23:56:28.973Z,87.90
2019-03-10T23:58:57.767Z,88.00
